Time;durP1;ratioP1;P1;durP2;ratioP2;P2;SDS_P1;SDS_P2;PMS_P1;PMS_P2;Temp;Humidity;BMP_temperature;BMP_pressure;BME280_temperature;BME280_humidity;BME280_pressure;Samples;Min_cycle;Max_cycle;Signal;HPM_P1;HPM_P2
2023/01/29 00:01:32;;;;;;;8.70;6.13;;;;;;;;;;5066547;28;20187;-78
2023/01/29 00:03:57;;;;;;;8.93;6.47;;;;;;;;;;5070208;28;20181;-77
2023/01/29 00:06:22;;;;;;;9.30;6.83;;;;;;;;;;5063086;28;20194;-78
2023/01/29 00:08:48;;;;;;;7.80;5.57;;;;;;;;;;5071887;28;20173;-78
2023/01/29 00:11:13;;;;;;;7.20;6.07;;;;;;;;;;5069518;28;20219;-77
2023/01/29 00:13:38;;;;;;;8.17;6.30;;;;;;;;;;5068048;28;20182;-78
2023/01/29 00:16:04;;;;;;;9.03;6.13;;;;;;;;;;5062075;28;20183;-78
2023/01/29 00:18:29;;;;;;;8.37;6.40;;;;;;;;;;5068912;28;20204;-78
2023/01/29 00:20:55;;;;;;;6.37;5.73;;;;;;;;;;5062240;28;20180;-77
2023/01/29 00:23:20;;;;;;;6.87;4.90;;;;;;;;;;5066732;28;20265;-77
2023/01/29 00:25:45;;;;;;;8.30;4.60;;;;;;;;;;5071165;28;20179;-78
2023/01/29 00:28:11;;;;;;;7.00;5.40;;;;;;;;;;5060232;28;20175;-78
2023/01/29 00:30:37;;;;;;;6.37;5.00;;;;;;;;;;5068194;28;20655;-78
2023/01/29 00:33:03;;;;;;;6.73;5.10;;;;;;;;;;5065482;28;20181;-77
2023/01/29 00:35:28;;;;;;;7.17;5.37;;;;;;;;;;5071073;28;20185;-78
2023/01/29 00:37:54;;;;;;;8.27;6.33;;;;;;;;;;5070339;28;20214;-78
2023/01/29 00:40:19;;;;;;;9.47;6.13;;;;;;;;;;5062862;28;20170;-78
2023/01/29 00:45:28;;;;;;;7.50;4.77;;;;;;;;;;5068658;28;20219;-77
2023/01/29 00:47:53;;;;;;;7.23;5.50;;;;;;;;;;5068910;28;20195;-78
2023/01/29 00:50:18;;;;;;;6.73;5.10;;;;;;;;;;5066862;28;20172;-78
2023/01/29 00:52:44;;;;;;;6.63;5.30;;;;;;;;;;5070396;28;20180;-78
2023/01/29 00:55:10;;;;;;;7.20;4.83;;;;;;;;;;5063536;28;20209;-78
2023/01/29 00:57:35;;;;;;;6.20;5.60;;;;;;;;;;5061429;28;20181;-78
2023/01/29 01:00:01;;;;;;;6.90;5.27;;;;;;;;;;5064472;28;20212;-77
2023/01/29 01:05:12;;;;;;;8.73;6.23;;;;;;;;;;5064977;28;20179;-78
2023/01/29 01:07:38;;;;;;;7.83;6.17;;;;;;;;;;5063790;28;20226;-77
2023/01/29 01:10:23;;;;;;;6.97;5.90;;;;;;;;;;5060722;28;20242;-78
2023/01/29 01:12:49;;;;;;;5.83;4.83;;;;;;;;;;5066149;28;20223;-77
2023/01/29 01:15:15;;;;;;;7.70;6.03;;;;;;;;;;5068164;28;20228;-78
2023/01/29 01:17:40;;;;;;;7.90;4.60;;;;;;;;;;5068866;28;20213;-77
2023/01/29 01:20:06;;;;;;;6.90;5.17;;;;;;;;;;5067216;28;20297;-78
2023/01/29 01:22:31;;;;;;;7.60;5.53;;;;;;;;;;5062603;28;20210;-78
2023/01/29 01:24:56;;;;;;;6.47;5.33;;;;;;;;;;5064714;28;20221;-78
2023/01/29 01:27:22;;;;;;;7.83;6.17;;;;;;;;;;5063546;28;20281;-78
2023/01/29 01:29:47;;;;;;;8.67;5.90;;;;;;;;;;5061098;28;20175;-77
2023/01/29 01:32:12;;;;;;;7.57;5.83;;;;;;;;;;5064271;28;20213;-77
2023/01/29 01:34:38;;;;;;;10.80;6.33;;;;;;;;;;5058873;28;20192;-77
2023/01/29 01:37:03;;;;;;;6.90;5.70;;;;;;;;;;5062983;28;20184;-77
2023/01/29 01:39:28;;;;;;;8.63;5.10;;;;;;;;;;5058887;28;20258;-77
2023/01/29 01:41:53;;;;;;;9.27;5.87;;;;;;;;;;5068183;28;20170;-78
2023/01/29 01:44:37;;;;;;;7.17;5.27;;;;;;;;;;5059050;28;20166;-77
2023/01/29 01:47:03;;;;;;;6.20;4.57;;;;;;;;;;5076417;28;20178;-77
2023/01/29 01:49:28;;;;;;;7.33;5.73;;;;;;;;;;5064128;28;20191;-77
2023/01/29 01:51:53;;;;;;;6.73;5.00;;;;;;;;;;5058330;28;20187;-77
2023/01/29 01:54:22;;;;;;;7.10;5.60;;;;;;;;;;5068581;28;20174;-77
2023/01/29 01:56:51;;;;;;;6.23;4.60;;;;;;;;;;5065455;28;20187;-78
2023/01/29 01:59:17;;;;;;;7.07;5.23;;;;;;;;;;5056240;28;20221;-77
2023/01/29 02:01:48;;;;;;;7.60;5.77;;;;;;;;;;5063772;28;20183;-78
2023/01/29 02:09:48;;;;;;;7.90;5.90;;;;;;;;;;5056910;28;20294;-77
2023/01/29 02:12:13;;;;;;;12.07;6.27;;;;;;;;;;5066287;28;20224;-78
2023/01/29 02:14:39;;;;;;;7.03;5.53;;;;;;;;;;5065145;28;20182;-78
2023/01/29 02:17:05;;;;;;;7.83;5.57;;;;;;;;;;5067849;28;20186;-78
2023/01/29 02:19:31;;;;;;;6.20;5.33;;;;;;;;;;5066200;28;20192;-78
2023/01/29 02:22:04;;;;;;;7.50;5.83;;;;;;;;;;5065306;28;20271;-78
2023/01/29 02:24:32;;;;;;;6.27;5.33;;;;;;;;;;5086534;28;20175;-77
2023/01/29 02:27:33;;;;;;;6.67;5.30;;;;;;;;;;5071675;28;20179;-78
2023/01/29 02:30:04;;;;;;;6.20;5.00;;;;;;;;;;4991500;28;20187;-77
2023/01/29 02:32:33;;;;;;;8.43;6.10;;;;;;;;;;5054750;28;20191;-78
2023/01/29 02:35:26;;;;;;;7.40;5.70;;;;;;;;;;5065161;28;20178;-77
2023/01/29 02:37:51;;;;;;;6.57;5.37;;;;;;;;;;5067883;28;20183;-78
2023/01/29 02:40:22;;;;;;;6.23;5.20;;;;;;;;;;5073442;28;21935;-78
2023/01/29 02:42:56;;;;;;;7.23;5.57;;;;;;;;;;5063966;28;20223;-77
2023/01/29 02:45:34;;;;;;;6.63;5.50;;;;;;;;;;5066935;28;20189;-78
2023/01/29 02:48:00;;;;;;;6.10;4.87;;;;;;;;;;5072086;28;20184;-78
2023/01/29 02:50:25;;;;;;;8.20;5.77;;;;;;;;;;5073219;28;20171;-78
2023/01/29 02:52:53;;;;;;;6.97;5.30;;;;;;;;;;5071126;28;20179;-78
2023/01/29 02:55:21;;;;;;;5.60;5.00;;;;;;;;;;5067309;28;20173;-77
2023/01/29 02:57:48;;;;;;;8.13;4.87;;;;;;;;;;5069840;28;20176;-77
2023/01/29 03:00:18;;;;;;;6.67;5.07;;;;;;;;;;5066615;28;20206;-78
2023/01/29 03:03:04;;;;;;;7.43;5.33;;;;;;;;;;5070539;28;20192;-77
2023/01/29 03:05:32;;;;;;;4.80;4.07;;;;;;;;;;5060864;28;20182;-78
2023/01/29 03:08:01;;;;;;;6.53;5.17;;;;;;;;;;5063567;28;20184;-77
2023/01/29 03:10:30;;;;;;;6.00;4.73;;;;;;;;;;5063792;28;20240;-78
2023/01/29 03:13:01;;;;;;;7.17;4.70;;;;;;;;;;5069286;28;20222;-78
2023/01/29 03:16:00;;;;;;;7.07;4.80;;;;;;;;;;5067697;28;20207;-78
2023/01/29 03:18:29;;;;;;;6.60;5.03;;;;;;;;;;5068664;28;20212;-78
2023/01/29 03:20:57;;;;;;;9.00;5.00;;;;;;;;;;5070680;28;20209;-79
2023/01/29 03:23:26;;;;;;;6.97;5.80;;;;;;;;;;5067523;28;20171;-78
2023/01/29 03:34:06;;;;;;;5.50;4.90;;;;;;;;;;5071968;28;20194;-78
2023/01/29 03:36:36;;;;;;;7.20;5.50;;;;;;;;;;5071224;28;20185;-77
2023/01/29 03:39:07;;;;;;;8.07;5.20;;;;;;;;;;5064173;28;20199;-77
2023/01/29 03:41:35;;;;;;;6.77;4.93;;;;;;;;;;5067842;28;20209;-77
2023/01/29 03:44:19;;;;;;;5.43;4.50;;;;;;;;;;5068840;28;20175;-77
2023/01/29 03:46:56;;;;;;;5.23;4.07;;;;;;;;;;5063178;28;20209;-77
2023/01/29 03:49:24;;;;;;;6.00;4.97;;;;;;;;;;5081411;28;20185;-79
2023/01/29 03:51:56;;;;;;;6.57;5.20;;;;;;;;;;5072569;28;20190;-77
2023/01/29 03:54:40;;;;;;;5.60;4.37;;;;;;;;;;5060630;28;20178;-78
2023/01/29 03:57:14;;;;;;;5.13;4.50;;;;;;;;;;5061010;28;20179;-77
2023/01/29 03:59:47;;;;;;;6.03;5.40;;;;;;;;;;5062677;28;20193;-78
2023/01/29 04:02:14;;;;;;;6.57;5.37;;;;;;;;;;5066404;28;20185;-78
2023/01/29 04:04:42;;;;;;;6.30;5.03;;;;;;;;;;5062008;28;20179;-78
2023/01/29 04:07:10;;;;;;;5.90;4.67;;;;;;;;;;5066333;28;20182;-78
2023/01/29 04:09:44;;;;;;;7.23;5.00;;;;;;;;;;5066567;28;20206;-77
2023/01/29 04:12:11;;;;;;;4.70;3.80;;;;;;;;;;5068132;28;20221;-78
2023/01/29 04:14:37;;;;;;;4.60;4.07;;;;;;;;;;5059712;28;20478;-77
2023/01/29 04:17:06;;;;;;;4.60;3.67;;;;;;;;;;5066845;28;20185;-77
2023/01/29 04:19:32;;;;;;;6.70;4.90;;;;;;;;;;5066998;28;20213;-78
2023/01/29 04:22:04;;;;;;;5.23;4.57;;;;;;;;;;5061892;28;20192;-78
2023/01/29 04:24:30;;;;;;;5.50;4.67;;;;;;;;;;5062110;28;20179;-77
2023/01/29 04:27:10;;;;;;;5.97;4.47;;;;;;;;;;5070216;28;20170;-77
2023/01/29 04:30:01;;;;;;;6.13;4.70;;;;;;;;;;5058889;28;20190;-78
2023/01/29 04:32:47;;;;;;;6.10;4.83;;;;;;;;;;5060623;28;20170;-78
2023/01/29 04:35:26;;;;;;;5.47;4.47;;;;;;;;;;5067825;28;20215;-79
2023/01/29 04:37:51;;;;;;;5.60;4.57;;;;;;;;;;5056747;28;20179;-77
2023/01/29 04:40:20;;;;;;;6.03;4.47;;;;;;;;;;5066159;28;20200;-78
2023/01/29 04:42:53;;;;;;;5.77;3.90;;;;;;;;;;5068364;28;20175;-78
2023/01/29 04:45:23;;;;;;;3.97;3.20;;;;;;;;;;5066194;28;20241;-78
2023/01/29 04:48:07;;;;;;;5.10;4.50;;;;;;;;;;5062937;28;20173;-77
2023/01/29 04:50:38;;;;;;;4.80;4.30;;;;;;;;;;5059945;28;20186;-77
2023/01/29 04:53:10;;;;;;;5.00;4.33;;;;;;;;;;5068490;28;20176;-78
2023/01/29 04:55:45;;;;;;;4.10;3.70;;;;;;;;;;5062910;28;20787;-77
2023/01/29 04:58:18;;;;;;;7.43;5.00;;;;;;;;;;5066587;28;20180;-77
2023/01/29 05:00:44;;;;;;;5.47;4.40;;;;;;;;;;5063208;28;20186;-78
2023/01/29 05:03:13;;;;;;;4.50;4.10;;;;;;;;;;5057442;28;20177;-78
2023/01/29 05:05:40;;;;;;;4.47;3.67;;;;;;;;;;5067339;28;20174;-77
2023/01/29 05:08:06;;;;;;;5.50;4.67;;;;;;;;;;5065516;28;20209;-78
2023/01/29 05:10:32;;;;;;;4.70;3.77;;;;;;;;;;5063827;28;20246;-79
2023/01/29 05:12:59;;;;;;;4.77;4.33;;;;;;;;;;5068068;28;20227;-78
2023/01/29 05:15:53;;;;;;;5.30;4.53;;;;;;;;;;5064819;28;20212;-78
2023/01/29 05:18:19;;;;;;;5.30;4.20;;;;;;;;;;5060878;28;20183;-77
2023/01/29 05:20:45;;;;;;;5.23;4.00;;;;;;;;;;5047137;28;20181;-77
2023/01/29 05:23:17;;;;;;;5.30;4.70;;;;;;;;;;5064847;28;20256;-78
2023/01/29 05:25:44;;;;;;;5.37;4.50;;;;;;;;;;5069396;28;20185;-78
2023/01/29 05:28:16;;;;;;;6.20;5.00;;;;;;;;;;5067635;28;20266;-77
2023/01/29 05:30:42;;;;;;;5.87;4.40;;;;;;;;;;5058879;28;20175;-78
2023/01/29 05:33:12;;;;;;;6.33;5.03;;;;;;;;;;5060264;28;20166;-78
2023/01/29 05:35:37;;;;;;;8.80;4.93;;;;;;;;;;5060056;28;20289;-78
2023/01/29 05:38:03;;;;;;;6.27;4.53;;;;;;;;;;5068707;28;20215;-78
2023/01/29 05:40:28;;;;;;;6.90;4.73;;;;;;;;;;5065463;28;20216;-77
2023/01/29 05:42:53;;;;;;;6.60;5.40;;;;;;;;;;5064352;28;20232;-77
2023/01/29 05:45:18;;;;;;;8.50;7.67;;;;;;;;;;5066226;28;20186;-78
2023/01/29 05:47:44;;;;;;;6.63;5.53;;;;;;;;;;5063142;28;20186;-77
2023/01/29 05:50:09;;;;;;;5.53;4.87;;;;;;;;;;5066575;28;20460;-78
2023/01/29 05:52:35;;;;;;;5.53;4.70;;;;;;;;;;5067854;28;20185;-77
2023/01/29 05:55:00;;;;;;;5.30;4.43;;;;;;;;;;5063118;28;20193;-78
2023/01/29 05:57:25;;;;;;;6.17;4.97;;;;;;;;;;5058543;28;20218;-77
2023/01/29 05:59:50;;;;;;;6.20;4.23;;;;;;;;;;5061886;28;20196;-78
2023/01/29 06:02:15;;;;;;;5.93;4.97;;;;;;;;;;5066097;28;20228;-78
2023/01/29 06:04:41;;;;;;;5.57;4.13;;;;;;;;;;5062413;28;20185;-78
2023/01/29 06:07:06;;;;;;;5.63;4.67;;;;;;;;;;5065003;28;20265;-78
2023/01/29 06:09:31;;;;;;;5.60;5.10;;;;;;;;;;5063666;28;20289;-77
2023/01/29 06:11:56;;;;;;;5.80;5.10;;;;;;;;;;5055884;28;20246;-77
2023/01/29 06:14:21;;;;;;;8.03;5.93;;;;;;;;;;5063724;28;20204;-78
2023/01/29 06:16:47;;;;;;;5.70;5.00;;;;;;;;;;5064303;28;20282;-78
2023/01/29 06:19:12;;;;;;;5.37;4.67;;;;;;;;;;5065469;28;20198;-77
2023/01/29 06:21:37;;;;;;;6.90;4.83;;;;;;;;;;5061047;28;20177;-79
2023/01/29 06:24:02;;;;;;;5.90;4.90;;;;;;;;;;5062469;28;20230;-77
2023/01/29 06:26:27;;;;;;;8.40;5.93;;;;;;;;;;5066442;28;20223;-77
2023/01/29 06:28:53;;;;;;;6.73;5.23;;;;;;;;;;5057674;28;20266;-79
2023/01/29 06:31:18;;;;;;;7.60;5.77;;;;;;;;;;5057645;28;20189;-78
2023/01/29 06:33:43;;;;;;;6.37;5.50;;;;;;;;;;5062351;28;20297;-79
2023/01/29 06:36:09;;;;;;;7.33;5.67;;;;;;;;;;5066890;28;20191;-78
2023/01/29 06:38:34;;;;;;;7.40;6.17;;;;;;;;;;5058080;28;20207;-78
2023/01/29 06:41:06;;;;;;;8.43;5.70;;;;;;;;;;5065072;28;20184;-78
2023/01/29 06:43:31;;;;;;;12.33;9.60;;;;;;;;;;5063978;28;20182;-78
2023/01/29 06:45:56;;;;;;;7.10;5.50;;;;;;;;;;5060487;28;20170;-77
2023/01/29 06:48:24;;;;;;;6.97;5.50;;;;;;;;;;5065437;28;20201;-78
2023/01/29 06:50:53;;;;;;;8.40;6.53;;;;;;;;;;5062164;28;20232;-78
2023/01/29 06:53:19;;;;;;;5.80;4.73;;;;;;;;;;5061262;28;20223;-78
2023/01/29 06:55:50;;;;;;;7.87;6.23;;;;;;;;;;5068407;28;20174;-78
2023/01/29 06:58:15;;;;;;;12.10;8.43;;;;;;;;;;5059563;28;20174;-78
2023/01/29 07:00:40;;;;;;;7.47;5.83;;;;;;;;;;5057939;28;20181;-78
2023/01/29 07:03:05;;;;;;;7.27;5.63;;;;;;;;;;5060621;28;20223;-77
2023/01/29 07:05:30;;;;;;;7.30;5.23;;;;;;;;;;5054217;28;20171;-77
2023/01/29 07:07:56;;;;;;;10.03;7.20;;;;;;;;;;5063581;28;20178;-78
2023/01/29 07:10:21;;;;;;;9.63;8.33;;;;;;;;;;5067795;28;20207;-77
2023/01/29 07:12:47;;;;;;;9.27;5.37;;;;;;;;;;5071560;28;20222;-78
2023/01/29 07:15:12;;;;;;;6.80;6.10;;;;;;;;;;5069438;28;20194;-78
2023/01/29 07:17:40;;;;;;;6.20;5.37;;;;;;;;;;5066607;28;20187;-78
2023/01/29 07:20:07;;;;;;;7.33;5.93;;;;;;;;;;5065438;28;20215;-78
2023/01/29 07:22:32;;;;;;;7.07;5.80;;;;;;;;;;5065594;28;20236;-79
2023/01/29 07:24:57;;;;;;;8.47;6.20;;;;;;;;;;5068572;28;20182;-77
2023/01/29 07:27:22;;;;;;;9.47;7.60;;;;;;;;;;5069217;28;20220;-77
2023/01/29 07:29:48;;;;;;;7.73;6.93;;;;;;;;;;5071038;28;20181;-77
2023/01/29 07:32:13;;;;;;;7.80;5.93;;;;;;;;;;5066895;28;20243;-77
2023/01/29 07:34:38;;;;;;;8.23;6.20;;;;;;;;;;5070411;28;20189;-77
2023/01/29 07:37:05;;;;;;;8.30;7.00;;;;;;;;;;5065021;28;20443;-77
2023/01/29 07:39:30;;;;;;;9.77;7.33;;;;;;;;;;5060347;28;20221;-77
2023/01/29 07:41:55;;;;;;;8.23;6.73;;;;;;;;;;5069257;28;20180;-78
2023/01/29 07:44:21;;;;;;;11.53;9.67;;;;;;;;;;5065073;28;20178;-78
2023/01/29 07:46:46;;;;;;;12.53;7.63;;;;;;;;;;5067914;28;20177;-78
2023/01/29 07:49:11;;;;;;;10.60;9.20;;;;;;;;;;5068759;28;20255;-77
2023/01/29 07:51:36;;;;;;;8.37;7.03;;;;;;;;;;5069001;28;20184;-77
2023/01/29 07:54:02;;;;;;;11.40;9.50;;;;;;;;;;5066667;28;20464;-77
2023/01/29 07:56:27;;;;;;;12.57;8.97;;;;;;;;;;5065747;28;20317;-78
2023/01/29 07:58:52;;;;;;;11.77;9.73;;;;;;;;;;5065273;28;20300;-77
2023/01/29 08:01:17;;;;;;;10.70;8.33;;;;;;;;;;5066359;28;20183;-78
2023/01/29 08:03:43;;;;;;;12.40;9.20;;;;;;;;;;5070676;28;20178;-77
2023/01/29 08:06:08;;;;;;;10.60;8.13;;;;;;;;;;5063590;28;20189;-78
2023/01/29 08:08:33;;;;;;;9.27;7.33;;;;;;;;;;5064998;28;20189;-78
2023/01/29 08:11:02;;;;;;;8.10;6.20;;;;;;;;;;5061937;28;20208;-78
2023/01/29 08:13:27;;;;;;;8.37;6.50;;;;;;;;;;5069075;28;20297;-77
2023/01/29 08:15:52;;;;;;;9.10;7.27;;;;;;;;;;5063079;28;20228;-77
2023/01/29 08:18:18;;;;;;;8.77;7.07;;;;;;;;;;5067468;28;20181;-78
2023/01/29 08:20:43;;;;;;;7.50;5.80;;;;;;;;;;5068303;28;20170;-78
2023/01/29 08:23:11;;;;;;;8.03;6.73;;;;;;;;;;5067686;28;20205;-77
2023/01/29 08:25:36;;;;;;;9.67;6.60;;;;;;;;;;5067171;28;20179;-77
2023/01/29 08:28:01;;;;;;;8.90;7.30;;;;;;;;;;5071671;28;20231;-77
2023/01/29 08:30:28;;;;;;;11.93;9.37;;;;;;;;;;5064469;28;20197;-78
2023/01/29 08:32:53;;;;;;;8.77;6.30;;;;;;;;;;5067525;28;20273;-78
2023/01/29 08:35:18;;;;;;;11.67;9.97;;;;;;;;;;5063722;28;20264;-77
2023/01/29 08:37:43;;;;;;;12.00;10.90;;;;;;;;;;5069934;28;20172;-77
2023/01/29 08:40:11;;;;;;;14.70;13.30;;;;;;;;;;5067298;28;20201;-77
2023/01/29 08:42:36;;;;;;;8.90;6.63;;;;;;;;;;5069523;28;20186;-77
2023/01/29 08:45:01;;;;;;;9.03;7.67;;;;;;;;;;5065036;28;20233;-78
2023/01/29 08:47:26;;;;;;;10.67;7.43;;;;;;;;;;5063008;28;20181;-78
2023/01/29 08:49:52;;;;;;;7.73;6.93;;;;;;;;;;5067222;28;20178;-77
2023/01/29 08:52:17;;;;;;;8.80;6.83;;;;;;;;;;5060752;28;20170;-78
2023/01/29 08:54:42;;;;;;;7.87;6.57;;;;;;;;;;5066352;28;20240;-77
2023/01/29 08:57:07;;;;;;;8.37;6.30;;;;;;;;;;5070899;28;20186;-78
2023/01/29 08:59:38;;;;;;;7.77;6.53;;;;;;;;;;5059385;28;20234;-77
2023/01/29 09:02:04;;;;;;;10.90;7.50;;;;;;;;;;5067914;28;20174;-78
2023/01/29 09:04:29;;;;;;;10.10;7.90;;;;;;;;;;5064880;28;20174;-77
2023/01/29 09:06:54;;;;;;;9.63;7.77;;;;;;;;;;5063186;28;20190;-78
2023/01/29 09:09:19;;;;;;;10.67;7.53;;;;;;;;;;5066925;28;20205;-79
2023/01/29 09:11:45;;;;;;;9.47;7.13;;;;;;;;;;5065018;28;20241;-77
2023/01/29 09:14:11;;;;;;;11.03;7.40;;;;;;;;;;5065449;28;20183;-78
2023/01/29 09:16:37;;;;;;;10.97;8.53;;;;;;;;;;5069970;28;20178;-79
2023/01/29 09:19:02;;;;;;;9.43;7.67;;;;;;;;;;5067911;28;20219;-78
2023/01/29 09:21:27;;;;;;;7.13;6.00;;;;;;;;;;5058332;28;20257;-78
2023/01/29 09:23:52;;;;;;;9.00;7.60;;;;;;;;;;5064960;28;20174;-77
2023/01/29 09:26:17;;;;;;;9.10;7.40;;;;;;;;;;5065757;28;20178;-77
2023/01/29 09:28:43;;;;;;;13.67;10.50;;;;;;;;;;5068225;28;20187;-78
2023/01/29 09:31:08;;;;;;;20.67;14.20;;;;;;;;;;5064075;28;20180;-77
2023/01/29 09:33:33;;;;;;;12.73;9.97;;;;;;;;;;5067732;28;20183;-77
2023/01/29 09:35:58;;;;;;;9.17;6.47;;;;;;;;;;5065581;28;20178;-78
2023/01/29 09:38:23;;;;;;;16.03;10.87;;;;;;;;;;5065945;28;20190;-77
2023/01/29 09:40:54;;;;;;;11.63;8.33;;;;;;;;;;5064972;28;20181;-77
2023/01/29 09:43:22;;;;;;;12.27;7.73;;;;;;;;;;5061484;28;20179;-77
2023/01/29 09:46:06;;;;;;;10.87;8.37;;;;;;;;;;5063500;28;20187;-77
2023/01/29 09:48:33;;;;;;;10.43;7.83;;;;;;;;;;5081059;28;20183;-77
2023/01/29 09:51:01;;;;;;;9.03;7.10;;;;;;;;;;5067576;28;20444;-77
2023/01/29 09:53:35;;;;;;;11.00;7.17;;;;;;;;;;5064646;28;20175;-77
2023/01/29 09:56:05;;;;;;;9.30;7.47;;;;;;;;;;5060378;28;20171;-78
2023/01/29 09:58:32;;;;;;;10.60;8.17;;;;;;;;;;5055553;28;20167;-78
2023/01/29 10:01:01;;;;;;;9.67;7.93;;;;;;;;;;5064541;28;20209;-77
2023/01/29 10:03:29;;;;;;;12.50;8.10;;;;;;;;;;5065921;28;20171;-78
2023/01/29 10:06:14;;;;;;;10.43;8.37;;;;;;;;;;5070056;28;20174;-77
2023/01/29 10:08:54;;;;;;;7.87;7.07;;;;;;;;;;5061900;28;20212;-77
2023/01/29 10:11:23;;;;;;;11.03;7.80;;;;;;;;;;5063073;28;20193;-77
2023/01/29 10:13:57;;;;;;;9.27;7.93;;;;;;;;;;5063812;28;20203;-77
2023/01/29 10:16:29;;;;;;;9.47;5.90;;;;;;;;;;5057327;28;20190;-77
2023/01/29 10:18:54;;;;;;;12.27;7.93;;;;;;;;;;5063117;28;20207;-77
2023/01/29 10:21:28;;;;;;;10.90;8.70;;;;;;;;;;5063243;28;20178;-77
2023/01/29 10:24:11;;;;;;;10.23;8.23;;;;;;;;;;5064201;28;20190;-78
2023/01/29 10:26:39;;;;;;;9.20;7.63;;;;;;;;;;5065679;28;20170;-79
2023/01/29 10:29:06;;;;;;;9.57;8.40;;;;;;;;;;5068690;28;20182;-77
2023/01/29 10:31:33;;;;;;;10.23;8.80;;;;;;;;;;5063763;28;20190;-77
2023/01/29 10:34:17;;;;;;;10.50;9.07;;;;;;;;;;5058873;28;20207;-77
2023/01/29 10:36:44;;;;;;;12.20;9.00;;;;;;;;;;5065411;28;20177;-77
2023/01/29 10:39:19;;;;;;;11.53;9.07;;;;;;;;;;5060640;28;20197;-78
2023/01/29 10:41:51;;;;;;;10.33;8.00;;;;;;;;;;5069565;28;20192;-77
2023/01/29 10:44:16;;;;;;;12.70;9.70;;;;;;;;;;5063715;28;20246;-78
2023/01/29 10:46:52;;;;;;;10.70;7.80;;;;;;;;;;5069090;28;20229;-78
2023/01/29 10:49:21;;;;;;;10.50;8.10;;;;;;;;;;5058794;28;20239;-77
2023/01/29 10:51:49;;;;;;;10.93;9.00;;;;;;;;;;5066487;28;20182;-77
2023/01/29 10:54:32;;;;;;;11.73;8.80;;;;;;;;;;5064215;28;20189;-77
2023/01/29 10:57:16;;;;;;;9.93;7.97;;;;;;;;;;5066222;28;20186;-77
2023/01/29 10:59:56;;;;;;;10.90;8.80;;;;;;;;;;5061754;28;20198;-78
2023/01/29 11:02:21;;;;;;;12.23;9.20;;;;;;;;;;5067451;28;20174;-77
2023/01/29 11:04:46;;;;;;;13.97;10.47;;;;;;;;;;5068258;28;20258;-77
2023/01/29 11:07:12;;;;;;;15.87;11.10;;;;;;;;;;5067041;28;20182;-78
2023/01/29 11:09:56;;;;;;;16.10;10.80;;;;;;;;;;5071427;28;20200;-78
2023/01/29 11:12:25;;;;;;;9.90;7.73;;;;;;;;;;5064483;28;20234;-77
2023/01/29 11:15:10;;;;;;;11.17;8.10;;;;;;;;;;5063978;28;20191;-77
2023/01/29 11:17:36;;;;;;;9.40;7.10;;;;;;;;;;5066973;28;20197;-77
2023/01/29 11:20:01;;;;;;;11.57;9.27;;;;;;;;;;5069708;28;20210;-77
2023/01/29 11:22:27;;;;;;;9.73;7.83;;;;;;;;;;5069180;28;20183;-77
2023/01/29 11:25:11;;;;;;;8.53;7.17;;;;;;;;;;5071522;28;20189;-77
2023/01/29 11:27:43;;;;;;;11.27;8.47;;;;;;;;;;5071300;28;20203;-77
2023/01/29 11:30:14;;;;;;;10.40;8.20;;;;;;;;;;5069166;28;20189;-78
2023/01/29 11:32:39;;;;;;;9.87;7.90;;;;;;;;;;5069577;28;20190;-77
2023/01/29 11:35:19;;;;;;;10.47;8.10;;;;;;;;;;5070329;28;20278;-77
2023/01/29 11:37:45;;;;;;;15.40;11.90;;;;;;;;;;5068957;28;20178;-77
2023/01/29 11:40:22;;;;;;;10.50;8.67;;;;;;;;;;5070764;28;20220;-77
2023/01/29 11:42:48;;;;;;;11.87;10.60;;;;;;;;;;5069585;28;20176;-77
2023/01/29 11:45:19;;;;;;;10.50;8.37;;;;;;;;;;5069901;28;20189;-77
2023/01/29 11:47:54;;;;;;;17.37;12.77;;;;;;;;;;5067839;28;20175;-78
2023/01/29 11:50:24;;;;;;;15.13;11.53;;;;;;;;;;5066218;28;20179;-78
2023/01/29 11:52:49;;;;;;;14.13;10.90;;;;;;;;;;5067636;28;20189;-77
2023/01/29 11:55:17;;;;;;;10.63;7.43;;;;;;;;;;5069830;28;20246;-77
2023/01/29 11:57:45;;;;;;;9.57;7.70;;;;;;;;;;5069956;28;20225;-78
2023/01/29 12:00:20;;;;;;;9.50;7.53;;;;;;;;;;5065958;28;20209;-77
2023/01/29 12:02:47;;;;;;;8.70;7.70;;;;;;;;;;5066820;28;20183;-77
2023/01/29 12:05:17;;;;;;;9.37;7.57;;;;;;;;;;5065649;28;20187;-77
2023/01/29 12:07:44;;;;;;;12.57;8.83;;;;;;;;;;5070496;28;20316;-77
2023/01/29 12:10:28;;;;;;;9.77;7.97;;;;;;;;;;5066418;28;20202;-78
2023/01/29 12:13:02;;;;;;;8.37;7.00;;;;;;;;;;5082038;28;20229;-78
2023/01/29 12:15:28;;;;;;;12.10;8.13;;;;;;;;;;5064588;28;20180;-77
2023/01/29 12:17:58;;;;;;;9.47;7.53;;;;;;;;;;5063387;28;20183;-77
2023/01/29 12:20:30;;;;;;;7.93;6.27;;;;;;;;;;5061107;28;20233;-78
2023/01/29 12:23:18;;;;;;;10.23;8.20;;;;;;;;;;5062338;28;20204;-77
2023/01/29 12:25:57;;;;;;;7.33;5.87;;;;;;;;;;5070542;28;20183;-77
2023/01/29 12:28:23;;;;;;;10.80;7.80;;;;;;;;;;5079487;28;20209;-77
2023/01/29 12:30:51;;;;;;;11.10;8.50;;;;;;;;;;5062668;28;21546;-77
2023/01/29 12:33:25;;;;;;;15.73;10.57;;;;;;;;;;5061795;28;20182;-78
2023/01/29 12:35:53;;;;;;;13.53;9.47;;;;;;;;;;5064153;28;20174;-77
2023/01/29 12:38:20;;;;;;;11.70;8.40;;;;;;;;;;5057936;28;20176;-78
2023/01/29 12:40:54;;;;;;;12.97;11.00;;;;;;;;;;5085662;28;20203;-77
2023/01/29 12:43:37;;;;;;;8.67;7.13;;;;;;;;;;5068855;28;20386;-77
2023/01/29 12:46:05;;;;;;;14.43;9.60;;;;;;;;;;5066624;28;20176;-77
2023/01/29 12:48:32;;;;;;;29.53;19.60;;;;;;;;;;5067324;28;20270;-77
2023/01/29 12:51:02;;;;;;;8.53;6.23;;;;;;;;;;5068388;28;20180;-77
2023/01/29 12:53:33;;;;;;;9.57;7.40;;;;;;;;;;5071392;28;20169;-77
2023/01/29 12:56:02;;;;;;;8.27;7.33;;;;;;;;;;5064583;28;20173;-77
2023/01/29 12:58:36;;;;;;;7.93;6.13;;;;;;;;;;5060239;28;20160;-77
2023/01/29 13:01:27;;;;;;;6.90;6.20;;;;;;;;;;5064219;28;20189;-77
2023/01/29 13:04:19;;;;;;;7.33;6.23;;;;;;;;;;5055539;28;20497;-77
2023/01/29 13:06:49;;;;;;;6.33;5.67;;;;;;;;;;5045506;28;20189;-77
2023/01/29 13:09:17;;;;;;;8.87;6.17;;;;;;;;;;5067448;28;20217;-77
2023/01/29 13:11:42;;;;;;;9.00;8.03;;;;;;;;;;5063869;28;20232;-78
2023/01/29 13:14:27;;;;;;;6.77;5.97;;;;;;;;;;5066889;28;20183;-77
2023/01/29 13:16:56;;;;;;;6.17;5.40;;;;;;;;;;5067993;28;20210;-76
2023/01/29 13:19:35;;;;;;;6.40;5.30;;;;;;;;;;5064033;28;20351;-78
2023/01/29 13:22:04;;;;;;;7.60;6.10;;;;;;;;;;5066914;28;20195;-78
2023/01/29 13:24:35;;;;;;;7.37;5.77;;;;;;;;;;5067820;28;20185;-77
2023/01/29 13:27:00;;;;;;;10.20;8.23;;;;;;;;;;5065958;28;20207;-77
2023/01/29 13:29:27;;;;;;;17.00;8.70;;;;;;;;;;5068686;28;20218;-78
2023/01/29 13:31:53;;;;;;;15.47;9.30;;;;;;;;;;5065978;28;20176;-77
2023/01/29 13:34:21;;;;;;;11.57;7.53;;;;;;;;;;5065243;28;20176;-77
2023/01/29 13:36:53;;;;;;;7.37;5.83;;;;;;;;;;5062901;28;20244;-77
2023/01/29 13:39:43;;;;;;;7.10;5.30;;;;;;;;;;5059809;28;20196;-77
2023/01/29 13:42:16;;;;;;;8.33;6.97;;;;;;;;;;5064613;28;20185;-76
2023/01/29 13:44:45;;;;;;;16.23;9.27;;;;;;;;;;5061136;28;20189;-78
2023/01/29 13:47:20;;;;;;;9.13;6.37;;;;;;;;;;5073272;28;20271;-77
2023/01/29 13:49:53;;;;;;;8.30;6.80;;;;;;;;;;5062989;28;20181;-77
2023/01/29 13:52:21;;;;;;;15.40;8.40;;;;;;;;;;5062331;28;20172;-77
2023/01/29 13:54:52;;;;;;;7.47;6.50;;;;;;;;;;5063698;28;20175;-77
2023/01/29 13:57:36;;;;;;;10.10;6.17;;;;;;;;;;5059149;28;20188;-77
2023/01/29 14:00:02;;;;;;;17.77;10.13;;;;;;;;;;5064851;28;20257;-77
2023/01/29 14:02:28;;;;;;;20.90;10.77;;;;;;;;;;5062437;28;20180;-77
2023/01/29 14:05:12;;;;;;;24.97;11.10;;;;;;;;;;5064414;28;20201;-77
2023/01/29 14:07:43;;;;;;;9.23;7.10;;;;;;;;;;5062764;28;20183;-77
2023/01/29 14:10:16;;;;;;;7.27;5.73;;;;;;;;;;5065667;28;20246;-77
2023/01/29 14:12:41;;;;;;;6.23;5.57;;;;;;;;;;5065186;28;20254;-77
2023/01/29 14:15:16;;;;;;;7.13;6.07;;;;;;;;;;5059876;28;20219;-79
2023/01/29 14:18:00;;;;;;;5.93;5.30;;;;;;;;;;5066263;28;20186;-77
2023/01/29 14:20:34;;;;;;;7.87;6.20;;;;;;;;;;5065638;28;20209;-77
2023/01/29 14:23:00;;;;;;;8.43;5.90;;;;;;;;;;5069106;28;20175;-76
2023/01/29 14:25:30;;;;;;;12.87;8.17;;;;;;;;;;5064782;28;20211;-77
2023/01/29 14:27:56;;;;;;;9.77;6.67;;;;;;;;;;5063361;28;20188;-77
2023/01/29 14:30:22;;;;;;;8.97;6.03;;;;;;;;;;5063088;28;20167;-77
2023/01/29 14:32:48;;;;;;;6.17;5.43;;;;;;;;;;5062652;28;20199;-77
2023/01/29 14:35:18;;;;;;;7.70;5.87;;;;;;;;;;5066180;28;20180;-77
2023/01/29 14:37:46;;;;;;;9.67;7.10;;;;;;;;;;5065512;28;20183;-77
2023/01/29 14:40:11;;;;;;;9.83;5.73;;;;;;;;;;5063655;28;20208;-78
2023/01/29 14:42:48;;;;;;;8.23;6.63;;;;;;;;;;5063969;28;20247;-77
2023/01/29 14:45:26;;;;;;;16.50;12.73;;;;;;;;;;5067972;28;20191;-77
2023/01/29 14:47:53;;;;;;;12.03;8.90;;;;;;;;;;5060799;28;20180;-77
2023/01/29 14:50:27;;;;;;;9.50;8.53;;;;;;;;;;5065624;28;20189;-76
2023/01/29 14:52:53;;;;;;;11.07;8.60;;;;;;;;;;5060005;28;20184;-77
2023/01/29 14:55:28;;;;;;;14.40;12.53;;;;;;;;;;5062731;28;20277;-77
2023/01/29 14:57:55;;;;;;;10.53;8.53;;;;;;;;;;5064528;28;20188;-77
2023/01/29 15:00:27;;;;;;;12.07;9.23;;;;;;;;;;5068957;28;20211;-76
2023/01/29 15:02:55;;;;;;;11.23;8.80;;;;;;;;;;5066369;28;20184;-77
2023/01/29 15:05:23;;;;;;;10.63;8.43;;;;;;;;;;5060142;28;20181;-77
2023/01/29 15:07:57;;;;;;;9.23;8.30;;;;;;;;;;5063317;28;20187;-77
2023/01/29 15:10:30;;;;;;;14.77;10.27;;;;;;;;;;5069324;28;20205;-77